createdAt,value
2019-01-13T00:01:59.954Z,18.30
2019-01-13T00:04:26.736Z,25.63
2019-01-13T00:06:57.344Z,20.77
2019-01-13T00:09:27.462Z,19.67
2019-01-13T00:11:55.894Z,19.00
2019-01-13T00:14:26.848Z,21.43
2019-01-13T00:16:59.297Z,19.63
2019-01-13T00:19:25.904Z,19.27
2019-01-13T00:21:56.740Z,20.67
2019-01-13T00:24:26.847Z,17.77
2019-01-13T00:26:54.014Z,20.92
2019-01-13T00:29:24.935Z,21.17
2019-01-13T00:31:56.295Z,21.82
2019-01-13T00:34:27.979Z,22.77
2019-01-13T00:36:58.668Z,19.10
2019-01-13T00:39:37.513Z,21.45
2019-01-13T00:42:06.353Z,18.03
2019-01-13T00:44:35.205Z,20.80
2019-01-13T00:47:11.337Z,20.07
2019-01-13T00:49:39.129Z,20.03
2019-01-13T00:52:08.999Z,20.07
2019-01-13T00:54:39.878Z,17.27
2019-01-13T00:57:06.805Z,17.23
2019-01-13T00:59:35.635Z,16.83
2019-01-13T01:02:02.736Z,17.93
2019-01-13T01:04:41.921Z,16.33
2019-01-13T01:07:11.995Z,16.07
2019-01-13T01:09:42.261Z,19.83
2019-01-13T01:12:11.175Z,19.53
2019-01-13T01:14:38.756Z,16.20
2019-01-13T01:17:05.802Z,16.65
2019-01-13T01:19:36.555Z,16.67
2019-01-13T01:22:05.906Z,16.53
2019-01-13T01:24:36.452Z,17.70
2019-01-13T01:27:05.379Z,17.73
2019-01-13T01:29:34.427Z,15.50
2019-01-13T01:34:31.743Z,19.63
2019-01-13T01:36:58.676Z,19.37
2019-01-13T01:39:28.518Z,18.77
2019-01-13T01:41:56.386Z,25.90
2019-01-13T01:44:22.998Z,19.77
2019-01-13T01:46:50.144Z,18.10
2019-01-13T01:49:19.639Z,19.03
2019-01-13T01:51:46.288Z,23.90
2019-01-13T01:54:13.069Z,18.67
2019-01-13T01:56:43.557Z,18.10
2019-01-13T01:59:11.539Z,21.62
2019-01-13T02:01:42.940Z,19.40
2019-01-13T02:04:06.535Z,16.80
2019-01-13T02:06:33.283Z,20.57
2019-01-13T02:08:59.876Z,18.77
2019-01-13T02:11:35.784Z,17.63
2019-01-13T02:14:04.670Z,20.03
2019-01-13T02:16:33.544Z,17.67
2019-01-13T02:18:59.910Z,21.27
2019-01-13T02:21:26.503Z,16.63
2019-01-13T02:23:55.733Z,18.53
2019-01-13T02:26:25.907Z,14.47
2019-01-13T02:28:52.507Z,15.80
2019-01-13T02:31:26.411Z,13.97
2019-01-13T02:33:52.973Z,18.33
2019-01-13T02:36:21.101Z,13.35
2019-01-13T02:38:49.355Z,14.07
2019-01-13T02:41:24.531Z,17.25
2019-01-13T02:43:53.742Z,16.90
2019-01-13T02:46:21.106Z,13.57
2019-01-13T02:48:48.755Z,12.83
2019-01-13T02:51:26.363Z,15.15
2019-01-13T02:53:52.974Z,15.03
2019-01-13T02:56:19.735Z,15.83
2019-01-13T02:58:46.665Z,9.20
2019-01-13T03:01:13.262Z,14.17
2019-01-13T03:03:39.906Z,11.40
2019-01-13T03:06:06.764Z,10.60
2019-01-13T03:08:33.638Z,9.45
2019-01-13T03:11:00.247Z,11.37
2019-01-13T03:13:29.934Z,10.23
2019-01-13T03:16:00.411Z,10.10
2019-01-13T03:18:28.063Z,10.50
2019-01-13T03:20:54.922Z,9.48
2019-01-13T03:23:21.875Z,9.87
2019-01-13T03:25:48.552Z,13.00
2019-01-13T03:28:17.698Z,8.73
2019-01-13T03:30:45.382Z,9.47
2019-01-13T03:35:58.994Z,9.33
2019-01-13T03:38:28.210Z,10.83
2019-01-13T03:40:55.098Z,11.67
2019-01-13T03:43:24.456Z,9.10
2019-01-13T03:45:52.017Z,12.20
2019-01-13T03:48:18.938Z,10.00
2019-01-13T03:50:45.536Z,12.50
2019-01-13T03:53:12.498Z,9.30
2019-01-13T03:55:39.923Z,13.57
2019-01-13T03:58:06.545Z,7.20
2019-01-13T04:00:33.237Z,10.17
2019-01-13T04:03:00.097Z,7.97
2019-01-13T04:05:26.701Z,6.87
2019-01-13T04:07:54.181Z,9.40
2019-01-13T04:10:20.801Z,7.53
2019-01-13T04:12:49.904Z,7.40
2019-01-13T04:15:16.251Z,5.42
2019-01-13T04:17:46.623Z,9.67
2019-01-13T04:20:13.237Z,4.60
2019-01-13T04:22:44.511Z,5.13
2019-01-13T04:25:14.829Z,7.90
2019-01-13T04:27:51.014Z,6.37
2019-01-13T04:30:17.967Z,7.40
2019-01-13T04:32:52.474Z,4.33
2019-01-13T05:09:32.809Z,4.97
2019-01-13T05:11:59.646Z,4.50
2019-01-13T05:14:26.249Z,4.33
2019-01-13T05:16:52.901Z,4.00
2019-01-13T05:19:19.691Z,4.43
2019-01-13T05:21:46.277Z,4.30
2019-01-13T05:24:13.155Z,4.53
2019-01-13T05:26:39.796Z,4.77
2019-01-13T05:29:06.673Z,6.47
2019-01-13T05:31:33.327Z,5.97
2019-01-13T05:33:59.916Z,5.00
2019-01-13T05:36:26.790Z,5.77
2019-01-13T05:38:53.421Z,6.37
2019-01-13T05:41:20.065Z,4.30
2019-01-13T05:43:46.845Z,3.42
2019-01-13T05:46:13.561Z,5.73
2019-01-13T05:48:40.172Z,5.07
2019-01-13T05:51:06.903Z,4.27
2019-01-13T05:53:33.602Z,4.57
2019-01-13T05:56:00.184Z,6.30
2019-01-13T05:58:26.971Z,4.93
2019-01-13T06:00:53.646Z,5.60
2019-01-13T06:03:20.369Z,5.50
2019-01-13T06:05:47.080Z,7.47
2019-01-13T06:08:13.990Z,6.45
2019-01-13T06:10:40.609Z,5.47
2019-01-13T06:13:07.182Z,8.07
2019-01-13T06:15:34.110Z,6.00
2019-01-13T06:18:00.714Z,6.03
2019-01-13T06:20:27.310Z,8.23
2019-01-13T06:22:54.209Z,7.40
2019-01-13T06:25:20.790Z,4.37
2019-01-13T06:27:47.447Z,4.45
2019-01-13T06:30:14.230Z,8.33
2019-01-13T06:32:40.814Z,9.60
2019-01-13T06:35:07.724Z,7.00
2019-01-13T06:37:34.324Z,9.63
2019-01-13T06:40:01.207Z,8.78
2019-01-13T06:42:28.103Z,6.67
2019-01-13T06:44:54.800Z,6.40
2019-01-13T06:47:21.962Z,5.90
2019-01-13T06:49:48.875Z,9.40
2019-01-13T06:52:15.963Z,7.70
2019-01-13T06:54:43.889Z,9.83
2019-01-13T06:57:10.541Z,7.00
2019-01-13T06:59:37.549Z,8.00
2019-01-13T07:02:04.518Z,5.80
2019-01-13T07:04:31.397Z,7.37
2019-01-13T07:06:58.013Z,10.80
2019-01-13T07:09:25.476Z,10.03
2019-01-13T07:11:52.090Z,9.33
2019-01-13T07:14:18.708Z,9.70
2019-01-13T07:16:45.623Z,7.67
2019-01-13T07:19:14.089Z,9.12
2019-01-13T07:21:40.728Z,7.27
2019-01-13T07:24:07.306Z,8.80
2019-01-13T07:26:33.890Z,7.33
2019-01-13T07:29:01.116Z,7.20
2019-01-13T07:31:28.231Z,7.20
2019-01-13T07:33:55.263Z,11.00
2019-01-13T07:36:21.952Z,13.83
2019-01-13T07:38:48.832Z,59.96
2019-01-13T07:41:15.483Z,85.43
2019-01-13T07:43:42.163Z,28.97
2019-01-13T07:46:09.323Z,41.13
2019-01-13T07:48:36.065Z,37.63
2019-01-13T07:51:03.000Z,35.25
2019-01-13T07:53:29.628Z,19.77
2019-01-13T07:55:56.612Z,13.80
2019-01-13T07:58:23.404Z,11.97
2019-01-13T08:00:50.377Z,10.70
2019-01-13T08:03:17.095Z,9.27
2019-01-13T08:05:44.216Z,8.57
2019-01-13T08:08:11.169Z,14.43
2019-01-13T08:10:38.082Z,11.18
2019-01-13T08:13:04.714Z,14.63
2019-01-13T08:15:33.335Z,18.10
2019-01-13T08:18:00.237Z,16.57
2019-01-13T08:20:26.877Z,14.80
2019-01-13T08:22:53.457Z,13.47
2019-01-13T08:25:20.250Z,12.93
2019-01-13T08:27:46.865Z,12.30
2019-01-13T08:30:14.687Z,13.00
2019-01-13T08:32:41.588Z,12.70
2019-01-13T08:35:08.368Z,12.93
2019-01-13T08:37:35.241Z,16.25
2019-01-13T08:40:01.956Z,15.07
2019-01-13T08:42:28.710Z,18.37
2019-01-13T08:44:55.639Z,18.70
2019-01-13T08:47:22.533Z,19.70
2019-01-13T08:49:49.531Z,21.23
2019-01-13T08:52:16.513Z,21.57
2019-01-13T08:54:45.035Z,22.40
2019-01-13T08:57:11.795Z,20.10
2019-01-13T08:59:38.553Z,19.63
2019-01-13T09:02:05.476Z,22.02
2019-01-13T09:04:32.122Z,20.67
2019-01-13T09:06:58.829Z,21.93
2019-01-13T09:09:25.600Z,15.43
2019-01-13T09:11:52.206Z,19.73
2019-01-13T09:14:18.811Z,19.20
2019-01-13T09:16:45.674Z,16.50
2019-01-13T09:19:14.897Z,21.75
2019-01-13T09:21:41.760Z,17.80
2019-01-13T09:24:08.770Z,19.17
2019-01-13T09:26:35.419Z,21.07
2019-01-13T09:29:02.155Z,17.83
2019-01-13T09:31:28.832Z,17.93
2019-01-13T09:33:55.492Z,11.63
2019-01-13T09:36:22.263Z,13.97
2019-01-13T09:38:49.018Z,11.35
2019-01-13T09:41:16.418Z,12.17
2019-01-13T09:43:45.093Z,10.97
2019-01-13T09:46:11.672Z,9.40
2019-01-13T09:48:38.363Z,13.23
2019-01-13T09:51:05.922Z,18.13
2019-01-13T09:53:32.669Z,12.63
2019-01-13T09:56:03.004Z,11.97
2019-01-13T09:58:31.290Z,8.00
2019-01-13T10:00:58.106Z,11.53
2019-01-13T10:03:25.246Z,8.53
2019-01-13T10:05:52.416Z,10.70
2019-01-13T10:08:21.915Z,14.07
2019-01-13T10:10:47.673Z,12.47
2019-01-13T10:13:15.941Z,8.48
2019-01-13T10:15:42.531Z,14.87
2019-01-13T10:18:09.253Z,8.07
2019-01-13T10:20:36.486Z,8.10
2019-01-13T10:23:03.477Z,7.37
2019-01-13T10:25:30.307Z,7.80
2019-01-13T10:27:58.276Z,7.33
2019-01-13T10:30:25.293Z,8.43
2019-01-13T10:32:54.629Z,11.18
2019-01-13T10:35:21.666Z,10.00
2019-01-13T10:37:48.608Z,7.90
2019-01-13T10:40:16.830Z,6.70
2019-01-13T10:42:43.712Z,9.97
2019-01-13T10:45:10.426Z,9.83
2019-01-13T10:47:37.116Z,8.67
2019-01-13T10:50:03.779Z,8.50
2019-01-13T10:52:30.475Z,8.97
2019-01-13T10:54:57.090Z,9.73
2019-01-13T10:57:24.038Z,10.13
2019-01-13T10:59:50.725Z,13.50
2019-01-13T11:02:17.352Z,10.30
2019-01-13T11:04:45.591Z,10.47
2019-01-13T11:07:12.305Z,11.83
2019-01-13T11:09:40.434Z,10.40
2019-01-13T11:12:08.265Z,10.33
2019-01-13T11:14:37.789Z,9.80
2019-01-13T11:17:05.467Z,8.75
2019-01-13T11:19:32.334Z,11.03
2019-01-13T11:21:58.956Z,6.10
2019-01-13T11:24:25.908Z,8.70
2019-01-13T11:26:52.832Z,10.45
2019-01-13T11:29:22.878Z,7.65
2019-01-13T11:31:49.248Z,6.87
2019-01-13T11:34:16.378Z,7.47
2019-01-13T11:36:44.198Z,9.47
2019-01-13T11:39:11.081Z,8.80
2019-01-13T11:41:37.992Z,7.25
2019-01-13T11:44:05.958Z,5.50
2019-01-13T11:46:33.734Z,7.60
2019-01-13T11:49:00.419Z,9.93
2019-01-13T11:51:27.288Z,8.90
2019-01-13T11:53:54.287Z,9.17
2019-01-13T11:56:31.161Z,9.60
2019-01-13T11:58:57.827Z,9.27
2019-01-13T12:01:24.829Z,8.50
2019-01-13T12:03:51.709Z,10.47
2019-01-13T12:06:18.876Z,10.13
2019-01-13T12:08:46.748Z,10.58
2019-01-13T12:11:14.900Z,13.50
2019-01-13T12:13:43.238Z,12.57
2019-01-13T12:16:13.631Z,11.83
2019-01-13T12:18:40.867Z,9.60
2019-01-13T12:21:09.174Z,7.80
2019-01-13T12:23:36.050Z,8.83
2019-01-13T12:26:06.563Z,10.67
2019-01-13T12:28:34.923Z,8.28
2019-01-13T12:31:02.687Z,14.00
2019-01-13T12:33:31.521Z,7.40
2019-01-13T12:35:59.203Z,7.08
2019-01-13T12:38:26.596Z,6.97
2019-01-13T12:40:56.774Z,10.07
2019-01-13T12:45:51.030Z,6.47
2019-01-13T12:48:21.730Z,8.60
2019-01-13T12:50:49.467Z,6.70
2019-01-13T12:53:17.365Z,7.22
2019-01-13T12:55:47.777Z,7.40
2019-01-13T12:58:15.139Z,8.10
2019-01-13T13:00:45.575Z,8.03
2019-01-13T13:03:14.239Z,7.60
2019-01-13T13:05:44.374Z,8.57
2019-01-13T13:08:11.045Z,6.80
2019-01-13T13:10:37.889Z,7.47
2019-01-13T13:13:04.516Z,13.10
2019-01-13T13:15:31.158Z,6.47
2019-01-13T13:17:59.955Z,5.77
2019-01-13T13:20:29.601Z,7.53
2019-01-13T13:22:57.445Z,7.57
2019-01-13T13:25:24.072Z,11.67
2019-01-13T13:27:57.839Z,9.53
2019-01-13T13:30:25.353Z,6.22
2019-01-13T13:32:54.068Z,8.40
2019-01-13T13:35:20.656Z,7.77
2019-01-13T13:37:58.322Z,7.60
2019-01-13T13:40:25.539Z,8.28
2019-01-13T13:42:54.321Z,9.77
2019-01-13T13:45:23.622Z,7.22
2019-01-13T13:47:55.603Z,5.43
2019-01-13T13:50:24.605Z,6.90
2019-01-13T13:52:55.470Z,6.03
2019-01-13T13:55:25.847Z,5.70
2019-01-13T13:57:53.600Z,9.33
2019-01-13T14:03:09.589Z,7.85
2019-01-13T14:05:36.453Z,13.80
2019-01-13T14:08:06.511Z,16.48
2019-01-13T14:10:38.464Z,9.15
2019-01-13T14:13:05.145Z,12.70
2019-01-13T14:15:35.468Z,9.75
2019-01-13T14:20:51.216Z,11.50
2019-01-13T14:23:20.293Z,12.67
2019-01-13T14:25:50.398Z,9.55
2019-01-13T14:28:24.781Z,10.80
2019-01-13T14:30:55.178Z,8.93
2019-01-13T14:36:12.603Z,9.63
2019-01-13T14:38:42.713Z,8.43
2019-01-13T14:41:10.935Z,8.77
2019-01-13T14:43:41.400Z,7.43
2019-01-13T14:46:08.091Z,7.27
2019-01-13T14:48:45.104Z,8.47
2019-01-13T14:51:15.430Z,8.00
2019-01-13T14:53:43.530Z,10.60
2019-01-13T14:56:11.165Z,10.37
2019-01-13T14:58:42.427Z,15.90
2019-01-13T15:01:11.045Z,9.90
2019-01-13T15:03:37.428Z,12.43
2019-01-13T15:06:07.873Z,9.30
2019-01-13T15:08:48.377Z,12.30
2019-01-13T15:11:31.868Z,16.37
2019-01-13T15:14:00.494Z,14.00
2019-01-13T15:16:29.178Z,10.87
2019-01-13T15:18:56.873Z,10.65
2019-01-13T15:21:26.435Z,13.07
2019-01-13T15:23:57.129Z,10.72
2019-01-13T15:26:27.732Z,10.20
2019-01-13T15:29:04.380Z,17.97
2019-01-13T15:31:34.969Z,8.63
2019-01-13T15:34:07.314Z,11.90
2019-01-13T15:36:35.956Z,17.77
2019-01-13T15:39:03.411Z,11.90
2019-01-13T15:41:33.724Z,12.10
2019-01-13T15:44:02.689Z,10.97
2019-01-13T15:46:31.836Z,8.57
2019-01-13T15:49:13.189Z,14.13
2019-01-13T15:51:42.822Z,10.93
2019-01-13T15:54:11.846Z,10.70
2019-01-13T15:56:40.571Z,10.70
2019-01-13T15:59:28.663Z,11.00
2019-01-13T16:02:01.269Z,9.80
2019-01-13T16:04:28.791Z,13.33
2019-01-13T16:07:00.450Z,10.93
2019-01-13T16:09:27.101Z,11.97
2019-01-13T16:12:07.637Z,10.60
2019-01-13T16:14:34.780Z,11.68
2019-01-13T16:17:07.055Z,13.33
2019-01-13T16:19:36.009Z,12.13
2019-01-13T16:22:04.781Z,11.83
2019-01-13T16:24:33.664Z,10.47
2019-01-13T16:29:54.044Z,9.57
2019-01-13T16:32:17.155Z,11.23
2019-01-13T16:34:45.273Z,11.03
2019-01-13T16:37:16.718Z,10.80
2019-01-13T16:39:45.778Z,17.47
2019-01-13T16:42:22.392Z,14.50
2019-01-13T16:44:49.312Z,10.63
2019-01-13T16:47:20.062Z,13.97
2019-01-13T16:49:49.765Z,18.80
2019-01-13T16:52:16.379Z,14.43
2019-01-13T16:54:43.632Z,15.70
2019-01-13T16:57:10.318Z,11.20
2019-01-13T16:59:37.752Z,14.35
2019-01-13T17:02:06.746Z,12.23
2019-01-13T17:04:35.411Z,14.20
2019-01-13T17:07:04.545Z,11.93
2019-01-13T17:09:34.525Z,13.28
2019-01-13T17:12:02.579Z,12.00
2019-01-13T17:14:36.386Z,11.05
2019-01-13T17:17:15.388Z,11.00
2019-01-13T17:19:44.825Z,11.80
2019-01-13T17:22:11.408Z,9.90
2019-01-13T17:24:40.581Z,15.03
2019-01-13T17:27:10.280Z,13.80
2019-01-13T17:29:37.553Z,17.23
2019-01-13T17:32:06.731Z,12.93
2019-01-13T17:34:35.945Z,19.73
2019-01-13T17:37:07.193Z,22.13
2019-01-13T17:39:34.593Z,18.93
2019-01-13T17:42:04.889Z,20.47
2019-01-13T17:44:32.851Z,17.20
2019-01-13T17:47:04.205Z,18.50
2019-01-13T17:49:38.976Z,19.37
2019-01-13T17:52:01.819Z,19.00
2019-01-13T17:54:38.700Z,15.00
2019-01-13T17:57:07.687Z,13.37
2019-01-13T17:59:38.762Z,13.50
2019-01-13T18:02:05.126Z,12.17
2019-01-13T18:04:31.784Z,18.60
2019-01-13T18:06:58.395Z,18.00
2019-01-13T18:09:35.723Z,22.43
2019-01-13T18:12:01.897Z,15.00
2019-01-13T18:14:31.545Z,16.02
2019-01-13T18:17:06.238Z,14.23
2019-01-13T18:19:44.443Z,17.00
2019-01-13T18:22:10.246Z,15.65
2019-01-13T18:24:36.979Z,14.73
2019-01-13T18:27:05.926Z,16.55
2019-01-13T18:29:36.146Z,22.82
2019-01-13T18:32:07.396Z,20.07
2019-01-13T18:34:37.061Z,21.90
2019-01-13T18:37:06.263Z,23.07
2019-01-13T18:39:33.772Z,25.10
2019-01-13T18:42:01.602Z,18.93
2019-01-13T18:44:33.056Z,22.02
2019-01-13T18:47:02.460Z,22.50
2019-01-13T18:49:33.104Z,23.67
2019-01-13T18:52:03.944Z,16.70
2019-01-13T18:54:32.556Z,21.55
2019-01-13T18:57:01.451Z,17.33
2019-01-13T18:59:32.222Z,18.47
2019-01-13T19:02:03.516Z,15.70
2019-01-13T19:04:31.385Z,18.17
2019-01-13T19:06:57.956Z,16.50
2019-01-13T19:09:25.064Z,15.67
2019-01-13T19:11:52.010Z,18.77
2019-01-13T19:14:18.744Z,19.27
2019-01-13T19:16:57.225Z,20.53
2019-01-13T19:19:24.031Z,15.73
2019-01-13T19:21:53.201Z,17.97
2019-01-13T19:24:23.439Z,18.40
2019-01-13T19:26:52.518Z,18.00
2019-01-13T19:29:20.177Z,17.60
2019-01-13T19:34:19.490Z,19.10
2019-01-13T19:36:47.473Z,19.57
2019-01-13T19:39:21.779Z,17.87
2019-01-13T19:41:50.186Z,19.17
2019-01-13T19:44:21.191Z,18.40
2019-01-13T19:46:49.625Z,18.80
2019-01-13T19:49:23.579Z,15.95
2019-01-13T19:51:54.075Z,17.10
2019-01-13T19:54:22.862Z,17.80
2019-01-13T19:56:54.075Z,17.70
2019-01-13T19:59:22.542Z,19.73
2019-01-13T20:01:50.572Z,17.60
2019-01-13T20:04:17.309Z,15.37
2019-01-13T20:06:44.288Z,19.57
2019-01-13T20:09:10.917Z,23.87
2019-01-13T20:11:37.855Z,17.10
2019-01-13T20:14:06.293Z,18.80
2019-01-13T20:16:38.980Z,15.83
2019-01-13T20:19:09.384Z,16.17
2019-01-13T20:21:40.474Z,17.00
2019-01-13T20:24:17.459Z,14.65
2019-01-13T20:26:46.878Z,17.40
2019-01-13T20:29:15.521Z,18.57
2019-01-13T20:31:44.985Z,16.87
2019-01-13T20:34:11.589Z,14.10
2019-01-13T20:36:41.372Z,15.27
2019-01-13T20:39:09.459Z,12.50
2019-01-13T20:41:50.909Z,13.93
2019-01-13T20:44:19.871Z,14.93
2019-01-13T20:46:46.867Z,14.40
2019-01-13T20:49:13.564Z,14.67
2019-01-13T20:51:40.226Z,10.77
2019-01-13T20:54:08.017Z,15.68
2019-01-13T20:56:34.735Z,13.17
2019-01-13T20:59:06.255Z,14.85
2019-01-13T21:04:06.317Z,11.83
2019-01-13T21:06:35.196Z,14.60
2019-01-13T21:09:05.463Z,17.32
2019-01-13T21:14:20.766Z,20.60
2019-01-13T21:16:49.121Z,17.90
2019-01-13T21:19:17.116Z,19.87
2019-01-13T21:21:48.033Z,19.10
2019-01-13T21:24:15.903Z,15.97
2019-01-13T21:26:42.808Z,17.27
2019-01-13T21:29:09.456Z,16.87
2019-01-13T21:31:37.114Z,15.90
2019-01-13T21:34:03.987Z,12.13
2019-01-13T21:36:31.672Z,16.13
2019-01-13T21:38:58.277Z,12.57
2019-01-13T21:41:26.205Z,12.00
2019-01-13T21:43:53.136Z,13.73
2019-01-13T21:46:21.338Z,15.00
2019-01-13T21:48:48.145Z,10.70
2019-01-13T21:51:15.044Z,14.80
2019-01-13T21:53:44.331Z,14.00
2019-01-13T21:56:12.082Z,13.35
2019-01-13T21:58:39.324Z,9.50
2019-01-13T22:01:06.223Z,13.50
2019-01-13T22:03:33.609Z,11.87
2019-01-13T22:06:01.293Z,10.27
2019-01-13T22:08:28.150Z,12.37
2019-01-13T22:10:54.747Z,11.30
2019-01-13T22:13:22.132Z,9.07
2019-01-13T22:15:48.715Z,12.43
2019-01-13T22:18:15.320Z,7.73
2019-01-13T22:20:41.961Z,14.90
2019-01-13T22:23:08.625Z,12.70
2019-01-13T22:25:35.922Z,13.53
2019-01-13T22:28:06.454Z,14.45
2019-01-13T22:30:33.760Z,11.65
2019-01-13T22:33:00.559Z,12.70
2019-01-13T22:35:30.533Z,13.03
2019-01-13T22:37:56.901Z,15.57
2019-01-13T22:40:27.483Z,13.47
2019-01-13T22:42:55.837Z,15.73
2019-01-13T22:45:22.748Z,17.07
2019-01-13T22:47:49.574Z,18.00
2019-01-13T22:50:16.229Z,17.20
2019-01-13T22:52:43.734Z,17.37
2019-01-13T22:55:10.619Z,14.87
2019-01-13T22:57:38.249Z,13.47
2019-01-13T23:00:05.600Z,16.00
2019-01-13T23:02:33.198Z,11.97
2019-01-13T23:05:00.293Z,13.03
2019-01-13T23:07:30.735Z,11.90
2019-01-13T23:09:57.629Z,14.43
2019-01-13T23:12:24.276Z,15.47
2019-01-13T23:14:50.911Z,11.37
2019-01-13T23:17:21.807Z,14.10
2019-01-13T23:19:48.434Z,13.07
2019-01-13T23:22:18.745Z,13.60
2019-01-13T23:24:45.472Z,12.40
2019-01-13T23:27:14.275Z,13.63
2019-01-13T23:29:44.686Z,19.57
2019-01-13T23:32:21.367Z,17.47
2019-01-13T23:34:49.668Z,20.57
2019-01-13T23:37:19.389Z,20.87
2019-01-13T23:39:46.060Z,25.37
2019-01-13T23:42:12.686Z,13.97
2019-01-13T23:44:39.280Z,13.90
2019-01-13T23:47:06.173Z,19.50
2019-01-13T23:49:36.916Z,15.48
2019-01-13T23:52:07.520Z,13.55
2019-01-13T23:54:36.140Z,13.37
2019-01-13T23:57:05.296Z,24.10
2019-01-13T23:59:31.923Z,14.67
